sensor_id;sensor_type;location;lat;lon;timestamp;temperature;humidity
39483;DHT22;25682;48.438;1.482;2023-02-24T00:00:08;19.70;56.00
39483;DHT22;25682;48.438;1.482;2023-02-24T00:02:52;19.70;56.00
39483;DHT22;25682;48.438;1.482;2023-02-24T00:05:18;19.70;56.00
39483;DHT22;25682;48.438;1.482;2023-02-24T00:07:44;19.70;56.00
39483;DHT22;25682;48.438;1.482;2023-02-24T00:10:10;19.70;56.00
39483;DHT22;25682;48.438;1.482;2023-02-24T00:12:36;19.70;56.10
39483;DHT22;25682;48.438;1.482;2023-02-24T00:15:02;19.70;56.10
39483;DHT22;25682;48.438;1.482;2023-02-24T00:17:29;19.70;56.10
39483;DHT22;25682;48.438;1.482;2023-02-24T00:19:55;19.70;56.00
39483;DHT22;25682;48.438;1.482;2023-02-24T00:22:21;19.70;56.10
39483;DHT22;25682;48.438;1.482;2023-02-24T00:24:47;19.70;56.10
39483;DHT22;25682;48.438;1.482;2023-02-24T00:27:12;19.60;56.10
39483;DHT22;25682;48.438;1.482;2023-02-24T00:29:39;19.60;56.10
39483;DHT22;25682;48.438;1.482;2023-02-24T00:32:06;19.60;56.10
39483;DHT22;25682;48.438;1.482;2023-02-24T00:34:37;19.60;56.20
39483;DHT22;25682;48.438;1.482;2023-02-24T00:37:03;19.60;56.20
39483;DHT22;25682;48.438;1.482;2023-02-24T00:39:31;19.60;56.30
39483;DHT22;25682;48.438;1.482;2023-02-24T00:42:01;19.60;56.30
39483;DHT22;25682;48.438;1.482;2023-02-24T00:44:36;19.60;56.30
39483;DHT22;25682;48.438;1.482;2023-02-24T00:47:03;19.60;56.40
39483;DHT22;25682;48.438;1.482;2023-02-24T00:49:30;19.60;56.40
39483;DHT22;25682;48.438;1.482;2023-02-24T00:51:57;19.60;56.40
39483;DHT22;25682;48.438;1.482;2023-02-24T00:54:23;19.60;56.40
39483;DHT22;25682;48.438;1.482;2023-02-24T00:56:53;19.60;56.40
39483;DHT22;25682;48.438;1.482;2023-02-24T00:59:19;19.60;56.50
39483;DHT22;25682;48.438;1.482;2023-02-24T01:01:46;19.60;56.50
39483;DHT22;25682;48.438;1.482;2023-02-24T01:04:14;19.60;56.50
39483;DHT22;25682;48.438;1.482;2023-02-24T01:06:42;19.60;56.50
39483;DHT22;25682;48.438;1.482;2023-02-24T01:09:11;19.60;56.60
39483;DHT22;25682;48.438;1.482;2023-02-24T01:11:38;19.50;56.50
39483;DHT22;25682;48.438;1.482;2023-02-24T01:14:28;19.60;56.60
39483;DHT22;25682;48.438;1.482;2023-02-24T01:16:54;19.50;56.60
39483;DHT22;25682;48.438;1.482;2023-02-24T01:19:26;19.50;56.60
39483;DHT22;25682;48.438;1.482;2023-02-24T01:22:03;19.50;56.60
39483;DHT22;25682;48.438;1.482;2023-02-24T01:24:34;19.50;56.50
39483;DHT22;25682;48.438;1.482;2023-02-24T01:27:00;19.50;56.60
39483;DHT22;25682;48.438;1.482;2023-02-24T01:29:26;19.50;56.60
39483;DHT22;25682;48.438;1.482;2023-02-24T01:31:52;19.50;56.60
39483;DHT22;25682;48.438;1.482;2023-02-24T01:34:22;19.50;56.60
39483;DHT22;25682;48.438;1.482;2023-02-24T01:36:48;19.50;56.70
39483;DHT22;25682;48.438;1.482;2023-02-24T01:39:14;19.50;56.80
39483;DHT22;25682;48.438;1.482;2023-02-24T01:41:41;19.50;56.90
39483;DHT22;25682;48.438;1.482;2023-02-24T01:46:39;19.50;56.90
39483;DHT22;25682;48.438;1.482;2023-02-24T01:51:56;19.50;56.90
39483;DHT22;25682;48.438;1.482;2023-02-24T01:54:26;19.50;57.00
39483;DHT22;25682;48.438;1.482;2023-02-24T01:56:55;19.50;56.90
39483;DHT22;25682;48.438;1.482;2023-02-24T01:59:23;19.50;56.90
39483;DHT22;25682;48.438;1.482;2023-02-24T02:01:51;19.50;57.00
39483;DHT22;25682;48.438;1.482;2023-02-24T02:04:21;19.50;57.00
39483;DHT22;25682;48.438;1.482;2023-02-24T02:06:47;19.40;57.00
39483;DHT22;25682;48.438;1.482;2023-02-24T02:09:14;19.50;57.00
39483;DHT22;25682;48.438;1.482;2023-02-24T02:11:41;19.40;56.90
39483;DHT22;25682;48.438;1.482;2023-02-24T02:14:07;19.50;57.00
39483;DHT22;25682;48.438;1.482;2023-02-24T02:25:12;19.40;57.00
39483;DHT22;25682;48.438;1.482;2023-02-24T02:38:54;19.40;56.80
39483;DHT22;25682;48.438;1.482;2023-02-24T02:41:34;19.40;56.80
39483;DHT22;25682;48.438;1.482;2023-02-24T02:47:28;19.40;56.90
39483;DHT22;25682;48.438;1.482;2023-02-24T02:53:11;19.30;56.70
39483;DHT22;25682;48.438;1.482;2023-02-24T02:55:45;19.30;56.90
39483;DHT22;25682;48.438;1.482;2023-02-24T02:58:16;19.30;56.90
39483;DHT22;25682;48.438;1.482;2023-02-24T03:00:48;19.30;56.90
39483;DHT22;25682;48.438;1.482;2023-02-24T03:03:33;19.30;56.90
39483;DHT22;25682;48.438;1.482;2023-02-24T03:06:27;19.30;56.80
39483;DHT22;25682;48.438;1.482;2023-02-24T03:09:07;19.30;56.80
39483;DHT22;25682;48.438;1.482;2023-02-24T03:11:40;19.40;56.90
39483;DHT22;25682;48.438;1.482;2023-02-24T03:14:07;19.30;56.90
39483;DHT22;25682;48.438;1.482;2023-02-24T03:16:40;19.30;56.90
39483;DHT22;25682;48.438;1.482;2023-02-24T03:19:08;19.30;56.90
39483;DHT22;25682;48.438;1.482;2023-02-24T03:21:41;19.30;56.80
39483;DHT22;25682;48.438;1.482;2023-02-24T03:24:10;19.30;56.70
39483;DHT22;25682;48.438;1.482;2023-02-24T03:29:23;19.30;56.80
39483;DHT22;25682;48.438;1.482;2023-02-24T03:32:04;19.30;56.70
39483;DHT22;25682;48.438;1.482;2023-02-24T03:37:11;19.30;56.60
39483;DHT22;25682;48.438;1.482;2023-02-24T03:39:37;19.30;56.60
39483;DHT22;25682;48.438;1.482;2023-02-24T03:42:15;19.30;56.60
39483;DHT22;25682;48.438;1.482;2023-02-24T03:44:46;19.30;56.60
39483;DHT22;25682;48.438;1.482;2023-02-24T03:47:13;19.30;56.50
39483;DHT22;25682;48.438;1.482;2023-02-24T03:49:40;19.30;56.60
39483;DHT22;25682;48.438;1.482;2023-02-24T03:57:47;19.30;56.60
39483;DHT22;25682;48.438;1.482;2023-02-24T04:00:26;19.30;56.70
39483;DHT22;25682;48.438;1.482;2023-02-24T04:03:19;19.30;56.80
39483;DHT22;25682;48.438;1.482;2023-02-24T04:08:59;19.30;56.90
39483;DHT22;25682;48.438;1.482;2023-02-24T04:15:25;19.30;57.00
39483;DHT22;25682;48.438;1.482;2023-02-24T04:17:44;19.30;56.90
39483;DHT22;25682;48.438;1.482;2023-02-24T04:20:13;19.30;56.80
39483;DHT22;25682;48.438;1.482;2023-02-24T04:22:49;19.30;56.60
39483;DHT22;25682;48.438;1.482;2023-02-24T04:25:21;19.30;56.50
39483;DHT22;25682;48.438;1.482;2023-02-24T04:27:51;19.30;56.40
39483;DHT22;25682;48.438;1.482;2023-02-24T04:30:18;19.30;56.40
39483;DHT22;25682;48.438;1.482;2023-02-24T04:32:44;19.40;56.30
39483;DHT22;25682;48.438;1.482;2023-02-24T04:35:14;19.30;56.10
39483;DHT22;25682;48.438;1.482;2023-02-24T04:38:21;19.30;56.00
39483;DHT22;25682;48.438;1.482;2023-02-24T04:40:48;19.30;55.90
39483;DHT22;25682;48.438;1.482;2023-02-24T04:43:14;19.30;55.90
39483;DHT22;25682;48.438;1.482;2023-02-24T04:45:40;19.40;55.80
39483;DHT22;25682;48.438;1.482;2023-02-24T04:48:06;19.40;55.80
39483;DHT22;25682;48.438;1.482;2023-02-24T04:50:42;19.40;55.70
39483;DHT22;25682;48.438;1.482;2023-02-24T04:53:13;19.40;55.70
39483;DHT22;25682;48.438;1.482;2023-02-24T04:55:41;19.40;55.60
39483;DHT22;25682;48.438;1.482;2023-02-24T04:58:11;19.40;55.60
39483;DHT22;25682;48.438;1.482;2023-02-24T05:00:38;19.40;55.60
39483;DHT22;25682;48.438;1.482;2023-02-24T10:39:36;19.90;51.50
39483;DHT22;25682;48.438;1.482;2023-02-24T10:42:06;18.90;47.80
39483;DHT22;25682;48.438;1.482;2023-02-24T10:44:43;18.90;48.70
39483;DHT22;25682;48.438;1.482;2023-02-24T10:47:24;18.90;49.90
39483;DHT22;25682;48.438;1.482;2023-02-24T10:50:00;19.00;51.00
39483;DHT22;25682;48.438;1.482;2023-02-24T10:52:38;19.10;51.50
39483;DHT22;25682;48.438;1.482;2023-02-24T10:55:32;19.10;51.80
39483;DHT22;25682;48.438;1.482;2023-02-24T10:58:35;19.20;52.00
39483;DHT22;25682;48.438;1.482;2023-02-24T11:01:30;19.30;52.20
39483;DHT22;25682;48.438;1.482;2023-02-24T11:04:16;19.30;52.30
39483;DHT22;25682;48.438;1.482;2023-02-24T11:07:16;19.30;52.40
39483;DHT22;25682;48.438;1.482;2023-02-24T11:10:16;19.40;52.60
39483;DHT22;25682;48.438;1.482;2023-02-24T11:12:52;19.40;52.70
39483;DHT22;25682;48.438;1.482;2023-02-24T11:15:48;19.50;52.90
39483;DHT22;25682;48.438;1.482;2023-02-24T11:18:34;19.50;53.10
39483;DHT22;25682;48.438;1.482;2023-02-24T11:21:04;19.60;53.20
39483;DHT22;25682;48.438;1.482;2023-02-24T11:34:44;19.70;54.40
39483;DHT22;25682;48.438;1.482;2023-02-24T11:42:56;19.80;54.70
39483;DHT22;25682;48.438;1.482;2023-02-24T11:48:16;19.80;54.80
39483;DHT22;25682;48.438;1.482;2023-02-24T11:53:33;19.80;55.10
39483;DHT22;25682;48.438;1.482;2023-02-24T11:56:25;19.90;55.20
39483;DHT22;25682;48.438;1.482;2023-02-24T12:07:36;19.90;55.10
39483;DHT22;25682;48.438;1.482;2023-02-24T12:15:24;19.90;55.00
39483;DHT22;25682;48.438;1.482;2023-02-24T12:18:03;19.90;55.00
39483;DHT22;25682;48.438;1.482;2023-02-24T12:20:56;20.00;55.00
39483;DHT22;25682;48.438;1.482;2023-02-24T12:23:28;19.90;55.20
39483;DHT22;25682;48.438;1.482;2023-02-24T12:26:17;19.90;55.10
39483;DHT22;25682;48.438;1.482;2023-02-24T12:37:32;20.00;54.00
39483;DHT22;25682;48.438;1.482;2023-02-24T12:42:42;20.00;53.80
39483;DHT22;25682;48.438;1.482;2023-02-24T12:50:30;20.00;53.50
39483;DHT22;25682;48.438;1.482;2023-02-24T12:58:35;20.00;53.30
39483;DHT22;25682;48.438;1.482;2023-02-24T13:09:35;20.00;53.40
39483;DHT22;25682;48.438;1.482;2023-02-24T13:12:54;20.00;53.40
39483;DHT22;25682;48.438;1.482;2023-02-24T13:15:25;20.00;53.30
39483;DHT22;25682;48.438;1.482;2023-02-24T13:17:53;20.00;53.30
39483;DHT22;25682;48.438;1.482;2023-02-24T13:22:56;20.00;53.20
39483;DHT22;25682;48.438;1.482;2023-02-24T13:25:49;20.00;53.20
39483;DHT22;25682;48.438;1.482;2023-02-24T13:28:28;20.00;53.20
39483;DHT22;25682;48.438;1.482;2023-02-24T13:31:07;20.00;53.30
39483;DHT22;25682;48.438;1.482;2023-02-24T13:33:38;20.10;53.60
39483;DHT22;25682;48.438;1.482;2023-02-24T13:36:11;20.00;53.70
39483;DHT22;25682;48.438;1.482;2023-02-24T13:38:46;20.00;54.00
39483;DHT22;25682;48.438;1.482;2023-02-24T13:43:58;20.10;54.30
39483;DHT22;25682;48.438;1.482;2023-02-24T13:46:44;20.10;54.30
39483;DHT22;25682;48.438;1.482;2023-02-24T13:49:28;20.00;54.30
39483;DHT22;25682;48.438;1.482;2023-02-24T14:00:19;20.10;54.50
39483;DHT22;25682;48.438;1.482;2023-02-24T14:02:48;20.10;54.50
39483;DHT22;25682;48.438;1.482;2023-02-24T14:05:32;20.10;54.70
39483;DHT22;25682;48.438;1.482;2023-02-24T14:07:58;20.10;54.70
39483;DHT22;25682;48.438;1.482;2023-02-24T14:10:30;20.10;54.80
39483;DHT22;25682;48.438;1.482;2023-02-24T14:13:07;20.10;54.90
39483;DHT22;25682;48.438;1.482;2023-02-24T14:15:42;20.10;55.00
39483;DHT22;25682;48.438;1.482;2023-02-24T14:18:20;20.20;55.20
39483;DHT22;25682;48.438;1.482;2023-02-24T14:20:46;20.10;55.20
39483;DHT22;25682;48.438;1.482;2023-02-24T14:23:31;20.20;55.30
39483;DHT22;25682;48.438;1.482;2023-02-24T14:26:12;20.20;55.40
39483;DHT22;25682;48.438;1.482;2023-02-24T14:28:41;20.20;55.40
39483;DHT22;25682;48.438;1.482;2023-02-24T14:31:14;20.20;55.30
39483;DHT22;25682;48.438;1.482;2023-02-24T14:33:42;20.20;55.40
39483;DHT22;25682;48.438;1.482;2023-02-24T14:36:21;20.20;55.40
39483;DHT22;25682;48.438;1.482;2023-02-24T14:39:14;20.20;55.40
39483;DHT22;25682;48.438;1.482;2023-02-24T14:41:40;20.20;55.30
39483;DHT22;25682;48.438;1.482;2023-02-24T14:44:25;20.20;55.30
39483;DHT22;25682;48.438;1.482;2023-02-24T14:46:56;20.20;55.30
39483;DHT22;25682;48.438;1.482;2023-02-24T14:49:25;20.20;55.20
39483;DHT22;25682;48.438;1.482;2023-02-24T14:52:16;20.20;55.10
39483;DHT22;25682;48.438;1.482;2023-02-24T14:57:17;20.20;54.90
39483;DHT22;25682;48.438;1.482;2023-02-24T14:59:48;20.20;54.90
39483;DHT22;25682;48.438;1.482;2023-02-24T15:02:17;20.20;54.80
39483;DHT22;25682;48.438;1.482;2023-02-24T15:04:45;20.20;54.90
39483;DHT22;25682;48.438;1.482;2023-02-24T15:07:23;20.20;54.70
39483;DHT22;25682;48.438;1.482;2023-02-24T15:09:51;20.20;54.70
39483;DHT22;25682;48.438;1.482;2023-02-24T15:12:26;20.20;54.70
39483;DHT22;25682;48.438;1.482;2023-02-24T15:17:26;20.20;54.70
39483;DHT22;25682;48.438;1.482;2023-02-24T15:19:51;20.20;54.80
39483;DHT22;25682;48.438;1.482;2023-02-24T15:24:48;20.20;54.70
39483;DHT22;25682;48.438;1.482;2023-02-24T15:29:43;20.20;54.60
39483;DHT22;25682;48.438;1.482;2023-02-24T15:32:18;20.20;54.50
39483;DHT22;25682;48.438;1.482;2023-02-24T15:34:46;20.20;54.40
39483;DHT22;25682;48.438;1.482;2023-02-24T15:37:19;20.20;54.10
39483;DHT22;25682;48.438;1.482;2023-02-24T15:39:47;20.20;54.20
39483;DHT22;25682;48.438;1.482;2023-02-24T15:42:26;20.20;54.20
39483;DHT22;25682;48.438;1.482;2023-02-24T15:44:54;20.20;54.20
39483;DHT22;25682;48.438;1.482;2023-02-24T15:47:29;20.20;54.10
39483;DHT22;25682;48.438;1.482;2023-02-24T15:49:57;20.20;54.00
39483;DHT22;25682;48.438;1.482;2023-02-24T15:52:25;20.10;53.90
39483;DHT22;25682;48.438;1.482;2023-02-24T15:54:53;20.20;53.90
39483;DHT22;25682;48.438;1.482;2023-02-24T15:57:19;20.20;53.80
39483;DHT22;25682;48.438;1.482;2023-02-24T15:59:45;20.10;53.60
39483;DHT22;25682;48.438;1.482;2023-02-24T16:02:19;20.20;53.60
39483;DHT22;25682;48.438;1.482;2023-02-24T16:04:46;20.20;53.60
39483;DHT22;25682;48.438;1.482;2023-02-24T16:07:24;20.20;53.60
39483;DHT22;25682;48.438;1.482;2023-02-24T16:09:53;20.10;53.30
39483;DHT22;25682;48.438;1.482;2023-02-24T16:12:25;20.10;53.50
39483;DHT22;25682;48.438;1.482;2023-02-24T16:14:54;20.10;53.50
39483;DHT22;25682;48.438;1.482;2023-02-24T16:17:35;20.10;53.50
39483;DHT22;25682;48.438;1.482;2023-02-24T16:20:05;20.10;53.50
39483;DHT22;25682;48.438;1.482;2023-02-24T16:22:34;20.10;53.50
39483;DHT22;25682;48.438;1.482;2023-02-24T16:25:00;20.10;53.50
39483;DHT22;25682;48.438;1.482;2023-02-24T16:27:27;20.10;53.60
39483;DHT22;25682;48.438;1.482;2023-02-24T16:29:54;20.10;53.70
39483;DHT22;25682;48.438;1.482;2023-02-24T16:32:20;20.10;54.00
39483;DHT22;25682;48.438;1.482;2023-02-24T16:34:48;20.10;54.10
39483;DHT22;25682;48.438;1.482;2023-02-24T16:37:23;20.10;54.00
39483;DHT22;25682;48.438;1.482;2023-02-24T16:39:50;20.10;54.00
39483;DHT22;25682;48.438;1.482;2023-02-24T16:42:17;20.10;54.10
39483;DHT22;25682;48.438;1.482;2023-02-24T16:44:43;20.10;54.20
39483;DHT22;25682;48.438;1.482;2023-02-24T16:47:14;20.10;54.30
39483;DHT22;25682;48.438;1.482;2023-02-24T16:49:41;20.10;54.40
39483;DHT22;25682;48.438;1.482;2023-02-24T16:52:07;20.10;54.50
39483;DHT22;25682;48.438;1.482;2023-02-24T16:54:33;20.10;54.80
39483;DHT22;25682;48.438;1.482;2023-02-24T16:56:58;20.20;55.00
39483;DHT22;25682;48.438;1.482;2023-02-24T16:59:24;20.10;54.80
39483;DHT22;25682;48.438;1.482;2023-02-24T17:01:54;20.20;54.50
39483;DHT22;25682;48.438;1.482;2023-02-24T17:04:20;20.20;54.20
39483;DHT22;25682;48.438;1.482;2023-02-24T17:06:46;20.20;53.90
39483;DHT22;25682;48.438;1.482;2023-02-24T17:09:12;20.20;53.80
39483;DHT22;25682;48.438;1.482;2023-02-24T17:11:40;20.20;53.60
39483;DHT22;25682;48.438;1.482;2023-02-24T17:14:18;20.20;53.50
39483;DHT22;25682;48.438;1.482;2023-02-24T17:16:45;20.20;53.50
39483;DHT22;25682;48.438;1.482;2023-02-24T17:19:11;20.20;53.50
39483;DHT22;25682;48.438;1.482;2023-02-24T17:21:43;20.20;53.50
39483;DHT22;25682;48.438;1.482;2023-02-24T17:24:14;20.20;53.60
39483;DHT22;25682;48.438;1.482;2023-02-24T17:26:40;20.20;53.80
39483;DHT22;25682;48.438;1.482;2023-02-24T17:29:06;20.20;54.00
39483;DHT22;25682;48.438;1.482;2023-02-24T17:31:32;20.20;54.20
39483;DHT22;25682;48.438;1.482;2023-02-24T17:33:59;20.20;54.30
39483;DHT22;25682;48.438;1.482;2023-02-24T17:36:24;20.20;54.50
39483;DHT22;25682;48.438;1.482;2023-02-24T17:38:50;20.10;54.30
39483;DHT22;25682;48.438;1.482;2023-02-24T17:41:16;20.20;54.40
39483;DHT22;25682;48.438;1.482;2023-02-24T17:43:41;20.10;54.30
39483;DHT22;25682;48.438;1.482;2023-02-24T17:46:07;20.10;54.10
39483;DHT22;25682;48.438;1.482;2023-02-24T17:48:32;20.10;54.40
39483;DHT22;25682;48.438;1.482;2023-02-24T17:50:58;20.10;54.40
39483;DHT22;25682;48.438;1.482;2023-02-24T17:53:24;20.10;54.50
39483;DHT22;25682;48.438;1.482;2023-02-24T17:56:00;20.10;54.80
39483;DHT22;25682;48.438;1.482;2023-02-24T17:58:26;20.10;54.90
39483;DHT22;25682;48.438;1.482;2023-02-24T18:00:51;20.10;54.90
39483;DHT22;25682;48.438;1.482;2023-02-24T18:03:17;20.10;55.10
39483;DHT22;25682;48.438;1.482;2023-02-24T18:05:42;20.10;55.10
39483;DHT22;25682;48.438;1.482;2023-02-24T18:08:08;20.10;55.10
39483;DHT22;25682;48.438;1.482;2023-02-24T18:10:33;20.10;55.10
39483;DHT22;25682;48.438;1.482;2023-02-24T18:12:59;20.10;55.20
39483;DHT22;25682;48.438;1.482;2023-02-24T18:15:25;20.10;55.10
39483;DHT22;25682;48.438;1.482;2023-02-24T18:17:50;20.10;55.10
39483;DHT22;25682;48.438;1.482;2023-02-24T18:20:16;20.10;55.00
39483;DHT22;25682;48.438;1.482;2023-02-24T18:22:42;20.10;55.00
39483;DHT22;25682;48.438;1.482;2023-02-24T18:25:07;20.10;55.10
39483;DHT22;25682;48.438;1.482;2023-02-24T18:27:33;20.10;55.20
39483;DHT22;25682;48.438;1.482;2023-02-24T18:29:59;20.10;55.30
39483;DHT22;25682;48.438;1.482;2023-02-24T18:32:24;20.10;55.30
39483;DHT22;25682;48.438;1.482;2023-02-24T18:34:50;20.10;55.30
39483;DHT22;25682;48.438;1.482;2023-02-24T18:37:15;20.10;55.30
39483;DHT22;25682;48.438;1.482;2023-02-24T18:39:41;20.20;55.40
39483;DHT22;25682;48.438;1.482;2023-02-24T18:42:07;20.20;55.40
39483;DHT22;25682;48.438;1.482;2023-02-24T18:44:32;20.20;55.40
39483;DHT22;25682;48.438;1.482;2023-02-24T18:46:58;20.20;55.80
